sensor_id;sensor_type;location;lat;lon;timestamp;temperature;humidity
78694;SHT31;68029;51.978;5.646;2023-10-19T00:00:14;11.3;88.1
78694;SHT31;68029;51.978;5.646;2023-10-19T00:02:52;11.4;87.9
78694;SHT31;68029;51.978;5.646;2023-10-19T00:05:21;11.4;87.9
78694;SHT31;68029;51.978;5.646;2023-10-19T00:07:54;11.4;87.9
78694;SHT31;68029;51.978;5.646;2023-10-19T00:10:24;11.5;87.9
78694;SHT31;68029;51.978;5.646;2023-10-19T00:12:58;11.5;87.6
78694;SHT31;68029;51.978;5.646;2023-10-19T00:15:31;11.6;87.5
78694;SHT31;68029;51.978;5.646;2023-10-19T00:18:01;11.6;87.3
78694;SHT31;68029;51.978;5.646;2023-10-19T00:20:39;11.7;87.2
78694;SHT31;68029;51.978;5.646;2023-10-19T00:23:18;11.7;87.2
78694;SHT31;68029;51.978;5.646;2023-10-19T00:25:51;11.8;87.2
78694;SHT31;68029;51.978;5.646;2023-10-19T00:28:21;11.8;87.2
78694;SHT31;68029;51.978;5.646;2023-10-19T00:30:53;11.8;87.2
78694;SHT31;68029;51.978;5.646;2023-10-19T00:33:27;11.9;87.1
78694;SHT31;68029;51.978;5.646;2023-10-19T00:35:59;11.9;87.1
78694;SHT31;68029;51.978;5.646;2023-10-19T00:38:33;11.9;87.0
78694;SHT31;68029;51.978;5.646;2023-10-19T00:41:15;12.0;86.9
78694;SHT31;68029;51.978;5.646;2023-10-19T00:43:49;12.0;86.8
78694;SHT31;68029;51.978;5.646;2023-10-19T00:46:24;12.1;86.7
78694;SHT31;68029;51.978;5.646;2023-10-19T00:49:00;12.1;86.7
78694;SHT31;68029;51.978;5.646;2023-10-19T00:51:36;12.2;86.6
78694;SHT31;68029;51.978;5.646;2023-10-19T00:54:20;12.2;86.6
78694;SHT31;68029;51.978;5.646;2023-10-19T00:56:53;12.2;86.6
78694;SHT31;68029;51.978;5.646;2023-10-19T00:59:29;12.3;86.4
78694;SHT31;68029;51.978;5.646;2023-10-19T01:02:02;12.3;86.3
78694;SHT31;68029;51.978;5.646;2023-10-19T01:04:38;12.4;86.3
78694;SHT31;68029;51.978;5.646;2023-10-19T01:07:09;12.4;86.4
78694;SHT31;68029;51.978;5.646;2023-10-19T01:09:43;12.4;86.5
78694;SHT31;68029;51.978;5.646;2023-10-19T01:12:12;12.4;86.6
78694;SHT31;68029;51.978;5.646;2023-10-19T01:15:02;12.5;86.6
78694;SHT31;68029;51.978;5.646;2023-10-19T01:17:34;12.5;86.5
78694;SHT31;68029;51.978;5.646;2023-10-19T01:20:06;12.6;86.4
78694;SHT31;68029;51.978;5.646;2023-10-19T01:22:47;12.6;86.4
78694;SHT31;68029;51.978;5.646;2023-10-19T01:25:20;12.7;86.5
78694;SHT31;68029;51.978;5.646;2023-10-19T01:27:55;12.7;86.5
78694;SHT31;68029;51.978;5.646;2023-10-19T01:30:24;12.7;86.3
78694;SHT31;68029;51.978;5.646;2023-10-19T01:32:53;12.8;86.3
78694;SHT31;68029;51.978;5.646;2023-10-19T01:35:23;12.8;86.2
78694;SHT31;68029;51.978;5.646;2023-10-19T01:37:53;12.9;86.1
78694;SHT31;68029;51.978;5.646;2023-10-19T01:40:22;12.9;86.1
78694;SHT31;68029;51.978;5.646;2023-10-19T01:42:52;12.9;86.3
78694;SHT31;68029;51.978;5.646;2023-10-19T01:45:20;13.0;86.4
78694;SHT31;68029;51.978;5.646;2023-10-19T01:47:49;13.0;86.4
78694;SHT31;68029;51.978;5.646;2023-10-19T01:50:18;13.1;86.4
78694;SHT31;68029;51.978;5.646;2023-10-19T01:52:47;13.1;86.4
78694;SHT31;68029;51.978;5.646;2023-10-19T01:55:18;13.2;86.4
78694;SHT31;68029;51.978;5.646;2023-10-19T01:57:47;13.2;86.1
78694;SHT31;68029;51.978;5.646;2023-10-19T02:00:19;13.3;86.0
78694;SHT31;68029;51.978;5.646;2023-10-19T02:02:49;13.4;85.8
78694;SHT31;68029;51.978;5.646;2023-10-19T02:05:19;13.4;85.8
78694;SHT31;68029;51.978;5.646;2023-10-19T02:07:48;13.5;85.8
78694;SHT31;68029;51.978;5.646;2023-10-19T02:10:17;13.5;85.7
78694;SHT31;68029;51.978;5.646;2023-10-19T02:12:46;13.6;85.6
78694;SHT31;68029;51.978;5.646;2023-10-19T02:15:15;13.6;85.3
78694;SHT31;68029;51.978;5.646;2023-10-19T02:17:44;13.7;85.2
78694;SHT31;68029;51.978;5.646;2023-10-19T02:20:17;13.7;85.0
78694;SHT31;68029;51.978;5.646;2023-10-19T02:22:50;13.8;84.9
78694;SHT31;68029;51.978;5.646;2023-10-19T02:25:20;13.8;84.9
78694;SHT31;68029;51.978;5.646;2023-10-19T02:27:51;13.9;84.9
78694;SHT31;68029;51.978;5.646;2023-10-19T02:30:20;13.9;84.9
78694;SHT31;68029;51.978;5.646;2023-10-19T02:32:51;13.9;85.4
78694;SHT31;68029;51.978;5.646;2023-10-19T02:35:20;14.0;85.3
78694;SHT31;68029;51.978;5.646;2023-10-19T02:37:49;14.0;85.4
78694;SHT31;68029;51.978;5.646;2023-10-19T02:40:19;14.0;85.3
78694;SHT31;68029;51.978;5.646;2023-10-19T02:42:50;14.1;85.4
78694;SHT31;68029;51.978;5.646;2023-10-19T02:45:20;14.1;85.2
78694;SHT31;68029;51.978;5.646;2023-10-19T02:47:49;14.2;85.2
78694;SHT31;68029;51.978;5.646;2023-10-19T02:50:18;14.2;84.9
78694;SHT31;68029;51.978;5.646;2023-10-19T02:52:49;14.3;85.2
78694;SHT31;68029;51.978;5.646;2023-10-19T02:55:17;14.3;85.3
78694;SHT31;68029;51.978;5.646;2023-10-19T02:57:46;14.4;85.3
78694;SHT31;68029;51.978;5.646;2023-10-19T03:00:16;14.4;85.4
78694;SHT31;68029;51.978;5.646;2023-10-19T03:02:48;14.4;85.3
78694;SHT31;68029;51.978;5.646;2023-10-19T03:05:19;14.5;85.2
78694;SHT31;68029;51.978;5.646;2023-10-19T03:07:47;14.5;85.0
78694;SHT31;68029;51.978;5.646;2023-10-19T03:10:18;14.5;85.0
78694;SHT31;68029;51.978;5.646;2023-10-19T03:12:56;14.6;84.8
78694;SHT31;68029;51.978;5.646;2023-10-19T03:15:25;14.6;84.7
78694;SHT31;68029;51.978;5.646;2023-10-19T03:17:57;14.6;84.5
78694;SHT31;68029;51.978;5.646;2023-10-19T03:20:27;14.6;84.4
78694;SHT31;68029;51.978;5.646;2023-10-19T03:22:59;14.7;84.5
78694;SHT31;68029;51.978;5.646;2023-10-19T03:25:28;14.7;84.4
78694;SHT31;68029;51.978;5.646;2023-10-19T03:28:13;14.7;84.4
78694;SHT31;68029;51.978;5.646;2023-10-19T03:30:44;14.8;84.6
78694;SHT31;68029;51.978;5.646;2023-10-19T03:33:13;14.8;84.5
78694;SHT31;68029;51.978;5.646;2023-10-19T03:35:44;14.9;84.4
78694;SHT31;68029;51.978;5.646;2023-10-19T03:38:15;14.9;84.6
78694;SHT31;68029;51.978;5.646;2023-10-19T03:40:45;14.9;84.4
78694;SHT31;68029;51.978;5.646;2023-10-19T03:43:18;15.0;84.3
78694;SHT31;68029;51.978;5.646;2023-10-19T03:45:53;15.0;84.2
78694;SHT31;68029;51.978;5.646;2023-10-19T03:48:27;15.1;84.0
78694;SHT31;68029;51.978;5.646;2023-10-19T03:51:00;15.1;83.8
78694;SHT31;68029;51.978;5.646;2023-10-19T03:53:30;15.2;83.4
78694;SHT31;68029;51.978;5.646;2023-10-19T03:55:59;15.2;83.3
78694;SHT31;68029;51.978;5.646;2023-10-19T03:58:29;15.2;83.3
78694;SHT31;68029;51.978;5.646;2023-10-19T04:00:58;15.2;83.4
78694;SHT31;68029;51.978;5.646;2023-10-19T04:03:31;15.3;83.4
78694;SHT31;68029;51.978;5.646;2023-10-19T04:06:01;15.3;83.3
78694;SHT31;68029;51.978;5.646;2023-10-19T04:08:31;15.3;83.2
78694;SHT31;68029;51.978;5.646;2023-10-19T04:11:03;15.3;83.4
78694;SHT31;68029;51.978;5.646;2023-10-19T04:13:44;15.3;83.3
78694;SHT31;68029;51.978;5.646;2023-10-19T04:16:13;15.4;83.3
78694;SHT31;68029;51.978;5.646;2023-10-19T04:18:43;15.4;83.2
78694;SHT31;68029;51.978;5.646;2023-10-19T04:21:12;15.4;83.2
78694;SHT31;68029;51.978;5.646;2023-10-19T04:23:40;15.4;83.1
78694;SHT31;68029;51.978;5.646;2023-10-19T04:26:09;15.4;83.0
78694;SHT31;68029;51.978;5.646;2023-10-19T04:28:44;15.5;82.9
78694;SHT31;68029;51.978;5.646;2023-10-19T04:31:17;15.5;82.9
78694;SHT31;68029;51.978;5.646;2023-10-19T04:33:50;15.5;82.7
78694;SHT31;68029;51.978;5.646;2023-10-19T04:36:20;15.5;82.7
78694;SHT31;68029;51.978;5.646;2023-10-19T04:38:51;15.6;82.4
78694;SHT31;68029;51.978;5.646;2023-10-19T04:41:22;15.6;82.2
78694;SHT31;68029;51.978;5.646;2023-10-19T04:43:50;15.6;81.9
78694;SHT31;68029;51.978;5.646;2023-10-19T04:46:18;15.6;81.7
78694;SHT31;68029;51.978;5.646;2023-10-19T04:48:47;15.6;81.5
78694;SHT31;68029;51.978;5.646;2023-10-19T04:51:16;15.7;81.3
78694;SHT31;68029;51.978;5.646;2023-10-19T04:53:45;15.7;81.2
78694;SHT31;68029;51.978;5.646;2023-10-19T04:56:14;15.7;80.9
78694;SHT31;68029;51.978;5.646;2023-10-19T04:58:42;15.7;80.8
78694;SHT31;68029;51.978;5.646;2023-10-19T05:01:11;15.7;80.5
78694;SHT31;68029;51.978;5.646;2023-10-19T05:03:41;15.7;80.5
78694;SHT31;68029;51.978;5.646;2023-10-19T05:06:10;15.6;80.4
78694;SHT31;68029;51.978;5.646;2023-10-19T05:08:40;15.6;80.3
78694;SHT31;68029;51.978;5.646;2023-10-19T05:11:10;15.6;80.3
78694;SHT31;68029;51.978;5.646;2023-10-19T05:13:39;15.6;80.5
78694;SHT31;68029;51.978;5.646;2023-10-19T05:16:07;15.6;80.7
78694;SHT31;68029;51.978;5.646;2023-10-19T05:18:37;15.6;80.9
78694;SHT31;68029;51.978;5.646;2023-10-19T05:21:07;15.6;81.1
78694;SHT31;68029;51.978;5.646;2023-10-19T05:23:36;15.6;81.2
78694;SHT31;68029;51.978;5.646;2023-10-19T05:26:07;15.6;81.3
78694;SHT31;68029;51.978;5.646;2023-10-19T05:28:35;15.6;81.4
78694;SHT31;68029;51.978;5.646;2023-10-19T05:31:04;15.6;81.4
78694;SHT31;68029;51.978;5.646;2023-10-19T05:33:32;15.6;81.5
78694;SHT31;68029;51.978;5.646;2023-10-19T05:36:01;15.6;81.5
78694;SHT31;68029;51.978;5.646;2023-10-19T05:38:29;15.6;81.5
78694;SHT31;68029;51.978;5.646;2023-10-19T05:40:58;15.6;81.3
78694;SHT31;68029;51.978;5.646;2023-10-19T05:43:27;15.6;81.2
78694;SHT31;68029;51.978;5.646;2023-10-19T05:45:56;15.6;81.1
78694;SHT31;68029;51.978;5.646;2023-10-19T05:48:25;15.7;81.1
78694;SHT31;68029;51.978;5.646;2023-10-19T05:50:54;15.7;81.1
78694;SHT31;68029;51.978;5.646;2023-10-19T05:53:22;15.7;81.0
78694;SHT31;68029;51.978;5.646;2023-10-19T05:55:51;15.7;81.0
78694;SHT31;68029;51.978;5.646;2023-10-19T05:58:19;15.7;80.9
78694;SHT31;68029;51.978;5.646;2023-10-19T06:00:48;15.7;80.9
78694;SHT31;68029;51.978;5.646;2023-10-19T06:03:18;15.7;81.0
78694;SHT31;68029;51.978;5.646;2023-10-19T06:05:46;15.7;81.1
78694;SHT31;68029;51.978;5.646;2023-10-19T06:08:15;15.7;81.1
78694;SHT31;68029;51.978;5.646;2023-10-19T06:10:52;15.7;81.1
78694;SHT31;68029;51.978;5.646;2023-10-19T06:13:21;15.7;81.2
78694;SHT31;68029;51.978;5.646;2023-10-19T06:15:50;15.7;81.2
78694;SHT31;68029;51.978;5.646;2023-10-19T06:18:19;15.7;81.3
78694;SHT31;68029;51.978;5.646;2023-10-19T06:20:48;15.7;81.3
78694;SHT31;68029;51.978;5.646;2023-10-19T06:23:17;15.7;81.3
78694;SHT31;68029;51.978;5.646;2023-10-19T06:25:46;15.7;81.4
78694;SHT31;68029;51.978;5.646;2023-10-19T06:28:16;15.7;81.4
78694;SHT31;68029;51.978;5.646;2023-10-19T06:30:45;15.7;81.5
78694;SHT31;68029;51.978;5.646;2023-10-19T06:33:14;15.7;81.5
78694;SHT31;68029;51.978;5.646;2023-10-19T06:35:43;15.7;81.5
78694;SHT31;68029;51.978;5.646;2023-10-19T06:38:11;15.7;81.5
78694;SHT31;68029;51.978;5.646;2023-10-19T06:40:43;15.8;81.4
78694;SHT31;68029;51.978;5.646;2023-10-19T06:43:11;15.8;81.5
78694;SHT31;68029;51.978;5.646;2023-10-19T06:45:44;15.8;81.4
78694;SHT31;68029;51.978;5.646;2023-10-19T06:48:13;15.8;81.4
78694;SHT31;68029;51.978;5.646;2023-10-19T06:50:41;15.8;81.5
78694;SHT31;68029;51.978;5.646;2023-10-19T06:53:11;15.8;81.3
78694;SHT31;68029;51.978;5.646;2023-10-19T06:55:40;15.9;81.2
78694;SHT31;68029;51.978;5.646;2023-10-19T06:58:09;15.9;81.1
78694;SHT31;68029;51.978;5.646;2023-10-19T07:00:38;15.9;81.0
78694;SHT31;68029;51.978;5.646;2023-10-19T07:03:09;15.9;81.0
78694;SHT31;68029;51.978;5.646;2023-10-19T07:05:39;15.9;80.9
78694;SHT31;68029;51.978;5.646;2023-10-19T07:08:08;15.9;80.9
78694;SHT31;68029;51.978;5.646;2023-10-19T07:10:36;15.9;80.9
78694;SHT31;68029;51.978;5.646;2023-10-19T07:13:05;15.9;81.0
78694;SHT31;68029;51.978;5.646;2023-10-19T07:15:37;16.0;81.0
78694;SHT31;68029;51.978;5.646;2023-10-19T07:18:07;16.0;80.9
78694;SHT31;68029;51.978;5.646;2023-10-19T07:20:38;16.0;80.7
78694;SHT31;68029;51.978;5.646;2023-10-19T07:23:09;16.0;80.8
78694;SHT31;68029;51.978;5.646;2023-10-19T07:25:48;16.0;80.6
78694;SHT31;68029;51.978;5.646;2023-10-19T07:28:20;16.0;80.6
78694;SHT31;68029;51.978;5.646;2023-10-19T07:30:51;16.0;80.7
78694;SHT31;68029;51.978;5.646;2023-10-19T07:33:19;16.0;80.7
78694;SHT31;68029;51.978;5.646;2023-10-19T07:35:50;16.0;80.9
78694;SHT31;68029;51.978;5.646;2023-10-19T07:38:22;16.0;81.0
78694;SHT31;68029;51.978;5.646;2023-10-19T07:40:52;16.1;80.7
78694;SHT31;68029;51.978;5.646;2023-10-19T07:43:21;16.1;80.6
78694;SHT31;68029;51.978;5.646;2023-10-19T07:45:51;16.1;80.8
78694;SHT31;68029;51.978;5.646;2023-10-19T07:48:22;16.1;80.7
78694;SHT31;68029;51.978;5.646;2023-10-19T07:50:51;16.1;80.6
78694;SHT31;68029;51.978;5.646;2023-10-19T07:53:20;16.2;80.6
78694;SHT31;68029;51.978;5.646;2023-10-19T07:55:51;16.2;80.5
78694;SHT31;68029;51.978;5.646;2023-10-19T07:58:19;16.2;80.5
78694;SHT31;68029;51.978;5.646;2023-10-19T08:00:48;16.2;80.7
78694;SHT31;68029;51.978;5.646;2023-10-19T08:03:16;16.3;80.4
78694;SHT31;68029;51.978;5.646;2023-10-19T08:05:45;16.3;80.3
78694;SHT31;68029;51.978;5.646;2023-10-19T08:08:14;16.3;80.1
78694;SHT31;68029;51.978;5.646;2023-10-19T08:10:44;16.3;80.1
78694;SHT31;68029;51.978;5.646;2023-10-19T08:13:13;16.4;80.1
78694;SHT31;68029;51.978;5.646;2023-10-19T08:15:44;16.4;80.1
78694;SHT31;68029;51.978;5.646;2023-10-19T08:18:12;16.4;79.7
78694;SHT31;68029;51.978;5.646;2023-10-19T08:20:41;16.5;79.6
78694;SHT31;68029;51.978;5.646;2023-10-19T08:23:12;16.5;79.8
78694;SHT31;68029;51.978;5.646;2023-10-19T08:25:43;16.5;79.7
78694;SHT31;68029;51.978;5.646;2023-10-19T08:28:12;16.5;79.5
78694;SHT31;68029;51.978;5.646;2023-10-19T08:30:46;16.5;79.6
78694;SHT31;68029;51.978;5.646;2023-10-19T08:33:20;16.6;79.6
78694;SHT31;68029;51.978;5.646;2023-10-19T08:35:48;16.6;79.7
78694;SHT31;68029;51.978;5.646;2023-10-19T08:38:19;16.6;80.0
78694;SHT31;68029;51.978;5.646;2023-10-19T08:40:47;16.6;79.6
78694;SHT31;68029;51.978;5.646;2023-10-19T08:43:19;16.7;79.7
78694;SHT31;68029;51.978;5.646;2023-10-19T08:45:47;16.7;79.7
78694;SHT31;68029;51.978;5.646;2023-10-19T08:48:16;16.8;79.2
78694;SHT31;68029;51.978;5.646;2023-10-19T08:50:45;16.8;79.5
78694;SHT31;68029;51.978;5.646;2023-10-19T08:53:16;16.9;78.9
78694;SHT31;68029;51.978;5.646;2023-10-19T08:55:48;16.9;79.3
78694;SHT31;68029;51.978;5.646;2023-10-19T08:58:20;16.9;79.4
78694;SHT31;68029;51.978;5.646;2023-10-19T09:00:50;17.0;79.4
78694;SHT31;68029;51.978;5.646;2023-10-19T09:03:20;17.0;79.4
78694;SHT31;68029;51.978;5.646;2023-10-19T09:05:48;17.1;79.9
78694;SHT31;68029;51.978;5.646;2023-10-19T09:08:19;17.1;80.3
78694;SHT31;68029;51.978;5.646;2023-10-19T09:10:49;17.2;79.8
78694;SHT31;68029;51.978;5.646;2023-10-19T09:13:19;17.3;79.1
78694;SHT31;68029;51.978;5.646;2023-10-19T09:15:49;17.4;78.4
78694;SHT31;68029;51.978;5.646;2023-10-19T09:18:21;17.4;78.6
78694;SHT31;68029;51.978;5.646;2023-10-19T09:20:52;17.5;78.1
78694;SHT31;68029;51.978;5.646;2023-10-19T09:23:25;17.5;77.9
78694;SHT31;68029;51.978;5.646;2023-10-19T09:25:57;17.6;77.7
78694;SHT31;68029;51.978;5.646;2023-10-19T09:28:29;17.6;78.2
78694;SHT31;68029;51.978;5.646;2023-10-19T09:31:01;17.6;78.9
78694;SHT31;68029;51.978;5.646;2023-10-19T09:33:31;17.7;78.9
78694;SHT31;68029;51.978;5.646;2023-10-19T09:36:01;17.8;79.6
78694;SHT31;68029;51.978;5.646;2023-10-19T09:38:39;18.0;79.0
78694;SHT31;68029;51.978;5.646;2023-10-19T09:41:12;18.2;78.0
78694;SHT31;68029;51.978;5.646;2023-10-19T09:43:43;18.4;78.3
78694;SHT31;68029;51.978;5.646;2023-10-19T09:46:15;18.6;77.2
78694;SHT31;68029;51.978;5.646;2023-10-19T09:48:48;18.8;76.1
78694;SHT31;68029;51.978;5.646;2023-10-19T09:51:19;19.0;76.3
78694;SHT31;68029;51.978;5.646;2023-10-19T09:53:53;19.2;74.7
78694;SHT31;68029;51.978;5.646;2023-10-19T09:56:28;19.4;74.7
78694;SHT31;68029;51.978;5.646;2023-10-19T09:59:04;19.6;74.0
78694;SHT31;68029;51.978;5.646;2023-10-19T10:02:03;19.9;73.5
78694;SHT31;68029;51.978;5.646;2023-10-19T10:04:34;20.2;71.4
78694;SHT31;68029;51.978;5.646;2023-10-19T10:07:05;20.4;69.4
78694;SHT31;68029;51.978;5.646;2023-10-19T10:09:38;20.6;68.9
78694;SHT31;68029;51.978;5.646;2023-10-19T10:12:21;20.7;68.1
78694;SHT31;68029;51.978;5.646;2023-10-19T10:15:03;20.9;68.9
78694;SHT31;68029;51.978;5.646;2023-10-19T10:17:35;21.1;68.2
78694;SHT31;68029;51.978;5.646;2023-10-19T10:20:30;21.3;65.7
78694;SHT31;68029;51.978;5.646;2023-10-19T10:23:20;21.4;64.6
78694;SHT31;68029;51.978;5.646;2023-10-19T10:25:57;21.5;65.5
78694;SHT31;68029;51.978;5.646;2023-10-19T10:28:27;21.5;65.2
78694;SHT31;68029;51.978;5.646;2023-10-19T10:31:12;21.5;64.7
78694;SHT31;68029;51.978;5.646;2023-10-19T10:33:44;21.5;64.5
78694;SHT31;68029;51.978;5.646;2023-10-19T10:36:17;21.4;65.3
78694;SHT31;68029;51.978;5.646;2023-10-19T10:38:47;21.4;65.0
78694;SHT31;68029;51.978;5.646;2023-10-19T10:41:24;21.4;65.2
78694;SHT31;68029;51.978;5.646;2023-10-19T10:43:56;21.3;66.2
78694;SHT31;68029;51.978;5.646;2023-10-19T10:46:27;21.3;66.3
78694;SHT31;68029;51.978;5.646;2023-10-19T10:48:57;21.3;65.7
78694;SHT31;68029;51.978;5.646;2023-10-19T10:51:27;21.2;66.2
78694;SHT31;68029;51.978;5.646;2023-10-19T10:53:58;21.2;66.5
78694;SHT31;68029;51.978;5.646;2023-10-19T10:56:27;21.1;66.4
78694;SHT31;68029;51.978;5.646;2023-10-19T10:58:56;21.0;66.4
78694;SHT31;68029;51.978;5.646;2023-10-19T11:01:32;20.9;67.0
78694;SHT31;68029;51.978;5.646;2023-10-19T11:04:09;20.7;67.0
78694;SHT31;68029;51.978;5.646;2023-10-19T11:06:53;20.6;68.0
78694;SHT31;68029;51.978;5.646;2023-10-19T11:09:23;20.6;68.3
78694;SHT31;68029;51.978;5.646;2023-10-19T11:11:54;20.5;68.7
78694;SHT31;68029;51.978;5.646;2023-10-19T11:14:22;20.5;70.2
78694;SHT31;68029;51.978;5.646;2023-10-19T11:16:52;20.5;72.0
78694;SHT31;68029;51.978;5.646;2023-10-19T11:19:20;20.6;73.4
78694;SHT31;68029;51.978;5.646;2023-10-19T11:21:54;20.9;70.2
78694;SHT31;68029;51.978;5.646;2023-10-19T11:24:27;21.2;68.1
78694;SHT31;68029;51.978;5.646;2023-10-19T11:27:00;21.4;65.8
78694;SHT31;68029;51.978;5.646;2023-10-19T11:29:29;21.6;65.0
78694;SHT31;68029;51.978;5.646;2023-10-19T11:32:00;21.6;65.6
78694;SHT31;68029;51.978;5.646;2023-10-19T11:34:30;21.7;66.8
78694;SHT31;68029;51.978;5.646;2023-10-19T11:37:01;21.8;65.5
78694;SHT31;68029;51.978;5.646;2023-10-19T11:39:31;21.9;65.9
78694;SHT31;68029;51.978;5.646;2023-10-19T11:41:59;22.0;63.8
78694;SHT31;68029;51.978;5.646;2023-10-19T11:44:28;22.1;63.9
78694;SHT31;68029;51.978;5.646;2023-10-19T11:46:57;22.2;63.5
78694;SHT31;68029;51.978;5.646;2023-10-19T11:49:25;22.2;62.2
78694;SHT31;68029;51.978;5.646;2023-10-19T11:51:54;22.3;60.7
78694;SHT31;68029;51.978;5.646;2023-10-19T11:54:23;22.3;60.5
78694;SHT31;68029;51.978;5.646;2023-10-19T11:56:52;22.4;61.1
78694;SHT31;68029;51.978;5.646;2023-10-19T11:59:21;22.4;61.3
78694;SHT31;68029;51.978;5.646;2023-10-19T12:01:49;22.4;60.7
78694;SHT31;68029;51.978;5.646;2023-10-19T12:04:18;22.4;61.3
78694;SHT31;68029;51.978;5.646;2023-10-19T12:06:49;22.4;60.5
78694;SHT31;68029;51.978;5.646;2023-10-19T12:09:17;22.4;60.6
78694;SHT31;68029;51.978;5.646;2023-10-19T12:11:51;22.3;60.2
78694;SHT31;68029;51.978;5.646;2023-10-19T12:14:22;22.3;61.0
78694;SHT31;68029;51.978;5.646;2023-10-19T12:16:53;22.2;60.0
78694;SHT31;68029;51.978;5.646;2023-10-19T12:19:23;22.1;60.5
78694;SHT31;68029;51.978;5.646;2023-10-19T12:21:54;22.0;60.3
78694;SHT31;68029;51.978;5.646;2023-10-19T12:24:24;21.8;61.1
78694;SHT31;68029;51.978;5.646;2023-10-19T12:26:55;21.7;61.8
78694;SHT31;68029;51.978;5.646;2023-10-19T12:29:24;21.6;63.5
78694;SHT31;68029;51.978;5.646;2023-10-19T12:31:52;21.6;62.4
78694;SHT31;68029;51.978;5.646;2023-10-19T12:34:21;21.5;62.9
78694;SHT31;68029;51.978;5.646;2023-10-19T12:36:50;21.5;63.6
78694;SHT31;68029;51.978;5.646;2023-10-19T12:39:18;21.4;63.6
78694;SHT31;68029;51.978;5.646;2023-10-19T12:42:08;21.3;63.2
78694;SHT31;68029;51.978;5.646;2023-10-19T12:44:37;21.3;64.5
78694;SHT31;68029;51.978;5.646;2023-10-19T12:47:11;21.2;64.3
78694;SHT31;68029;51.978;5.646;2023-10-19T12:49:43;21.2;64.1
78694;SHT31;68029;51.978;5.646;2023-10-19T12:52:14;21.1;63.8
78694;SHT31;68029;51.978;5.646;2023-10-19T12:54:44;21.0;64.2
78694;SHT31;68029;51.978;5.646;2023-10-19T12:57:17;20.9;64.5
78694;SHT31;68029;51.978;5.646;2023-10-19T12:59:46;20.8;65.1
78694;SHT31;68029;51.978;5.646;2023-10-19T13:02:19;20.7;65.1
78694;SHT31;68029;51.978;5.646;2023-10-19T13:04:48;20.7;66.4
78694;SHT31;68029;51.978;5.646;2023-10-19T13:07:18;20.6;66.4
78694;SHT31;68029;51.978;5.646;2023-10-19T13:09:51;20.5;66.3
78694;SHT31;68029;51.978;5.646;2023-10-19T13:12:19;20.4;66.9
78694;SHT31;68029;51.978;5.646;2023-10-19T13:14:50;20.4;67.8
78694;SHT31;68029;51.978;5.646;2023-10-19T13:17:19;20.3;68.7
78694;SHT31;68029;51.978;5.646;2023-10-19T13:19:47;20.3;68.4
78694;SHT31;68029;51.978;5.646;2023-10-19T13:22:17;20.2;68.8
78694;SHT31;68029;51.978;5.646;2023-10-19T13:24:48;20.2;69.5
78694;SHT31;68029;51.978;5.646;2023-10-19T13:27:18;20.1;69.7
78694;SHT31;68029;51.978;5.646;2023-10-19T13:29:48;20.0;70.2
78694;SHT31;68029;51.978;5.646;2023-10-19T13:32:17;20.0;70.5
78694;SHT31;68029;51.978;5.646;2023-10-19T13:34:46;19.9;71.2
78694;SHT31;68029;51.978;5.646;2023-10-19T13:37:14;19.9;71.6
78694;SHT31;68029;51.978;5.646;2023-10-19T13:39:43;19.9;71.7
78694;SHT31;68029;51.978;5.646;2023-10-19T13:42:11;19.9;72.3
78694;SHT31;68029;51.978;5.646;2023-10-19T13:44:40;19.8;72.5
78694;SHT31;68029;51.978;5.646;2023-10-19T13:47:09;19.8;72.4
78694;SHT31;68029;51.978;5.646;2023-10-19T13:49:38;19.8;72.1
78694;SHT31;68029;51.978;5.646;2023-10-19T13:52:07;19.8;72.4
78694;SHT31;68029;51.978;5.646;2023-10-19T13:54:36;19.8;71.9
78694;SHT31;68029;51.978;5.646;2023-10-19T13:57:07;19.8;72.4
78694;SHT31;68029;51.978;5.646;2023-10-19T13:59:36;19.8;72.0
78694;SHT31;68029;51.978;5.646;2023-10-19T14:02:06;19.8;72.0
78694;SHT31;68029;51.978;5.646;2023-10-19T14:04:37;19.8;72.6
78694;SHT31;68029;51.978;5.646;2023-10-19T14:07:05;19.8;73.1
78694;SHT31;68029;51.978;5.646;2023-10-19T14:09:34;19.8;72.7
78694;SHT31;68029;51.978;5.646;2023-10-19T14:12:03;19.8;72.6
78694;SHT31;68029;51.978;5.646;2023-10-19T14:14:32;19.7;72.1
78694;SHT31;68029;51.978;5.646;2023-10-19T14:17:01;19.7;72.4
78694;SHT31;68029;51.978;5.646;2023-10-19T14:19:29;19.7;73.0
78694;SHT31;68029;51.978;5.646;2023-10-19T14:21:58;19.6;73.2
78694;SHT31;68029;51.978;5.646;2023-10-19T14:24:26;19.6;72.9
78694;SHT31;68029;51.978;5.646;2023-10-19T14:26:55;19.5;73.6
78694;SHT31;68029;51.978;5.646;2023-10-19T14:29:25;19.5;73.9
78694;SHT31;68029;51.978;5.646;2023-10-19T14:31:54;19.5;74.2
78694;SHT31;68029;51.978;5.646;2023-10-19T14:34:22;19.5;74.3
78694;SHT31;68029;51.978;5.646;2023-10-19T14:36:53;19.4;74.0
78694;SHT31;68029;51.978;5.646;2023-10-19T14:39:21;19.4;74.2
78694;SHT31;68029;51.978;5.646;2023-10-19T14:41:51;19.4;74.2
78694;SHT31;68029;51.978;5.646;2023-10-19T14:44:19;19.3;74.3
78694;SHT31;68029;51.978;5.646;2023-10-19T14:46:48;19.3;74.4
78694;SHT31;68029;51.978;5.646;2023-10-19T14:49:17;19.2;74.8
78694;SHT31;68029;51.978;5.646;2023-10-19T14:51:49;19.2;75.1
78694;SHT31;68029;51.978;5.646;2023-10-19T14:54:17;19.1;75.5
78694;SHT31;68029;51.978;5.646;2023-10-19T14:56:45;19.1;75.9
78694;SHT31;68029;51.978;5.646;2023-10-19T14:59:14;19.1;75.7
78694;SHT31;68029;51.978;5.646;2023-10-19T15:01:44;19.1;75.8
78694;SHT31;68029;51.978;5.646;2023-10-19T15:04:12;19.1;75.8
78694;SHT31;68029;51.978;5.646;2023-10-19T15:06:43;19.1;75.3
78694;SHT31;68029;51.978;5.646;2023-10-19T15:09:11;19.1;75.5
78694;SHT31;68029;51.978;5.646;2023-10-19T15:11:47;19.0;75.4
78694;SHT31;68029;51.978;5.646;2023-10-19T15:14:16;19.0;75.4
78694;SHT31;68029;51.978;5.646;2023-10-19T15:16:46;19.0;75.4
78694;SHT31;68029;51.978;5.646;2023-10-19T15:19:14;18.9;75.6
78694;SHT31;68029;51.978;5.646;2023-10-19T15:21:45;18.9;75.4
78694;SHT31;68029;51.978;5.646;2023-10-19T15:24:15;18.9;75.7
78694;SHT31;68029;51.978;5.646;2023-10-19T15:26:45;18.8;75.6
78694;SHT31;68029;51.978;5.646;2023-10-19T15:29:13;18.8;76.1
78694;SHT31;68029;51.978;5.646;2023-10-19T15:31:42;18.8;75.8
78694;SHT31;68029;51.978;5.646;2023-10-19T15:34:10;18.7;75.8
78694;SHT31;68029;51.978;5.646;2023-10-19T15:36:41;18.7;76.1
78694;SHT31;68029;51.978;5.646;2023-10-19T15:39:10;18.7;76.0
78694;SHT31;68029;51.978;5.646;2023-10-19T15:41:38;18.6;76.2
78694;SHT31;68029;51.978;5.646;2023-10-19T15:44:07;18.6;76.6
78694;SHT31;68029;51.978;5.646;2023-10-19T15:46:37;18.6;76.8
78694;SHT31;68029;51.978;5.646;2023-10-19T15:49:08;18.6;76.7
78694;SHT31;68029;51.978;5.646;2023-10-19T15:51:41;18.6;76.6
78694;SHT31;68029;51.978;5.646;2023-10-19T15:54:11;18.6;76.7
78694;SHT31;68029;51.978;5.646;2023-10-19T15:56:40;18.6;77.0
78694;SHT31;68029;51.978;5.646;2023-10-19T15:59:08;18.6;76.7
78694;SHT31;68029;51.978;5.646;2023-10-19T16:01:37;18.5;76.5
78694;SHT31;68029;51.978;5.646;2023-10-19T16:04:07;18.5;76.5
78694;SHT31;68029;51.978;5.646;2023-10-19T16:06:35;18.5;76.5
78694;SHT31;68029;51.978;5.646;2023-10-19T16:09:03;18.5;76.7
78694;SHT31;68029;51.978;5.646;2023-10-19T16:11:32;18.5;76.5
78694;SHT31;68029;51.978;5.646;2023-10-19T16:14:01;18.4;76.6
78694;SHT31;68029;51.978;5.646;2023-10-19T16:16:30;18.4;76.5
78694;SHT31;68029;51.978;5.646;2023-10-19T16:18:59;18.3;76.7
78694;SHT31;68029;51.978;5.646;2023-10-19T16:21:28;18.3;76.8
78694;SHT31;68029;51.978;5.646;2023-10-19T16:23:57;18.3;76.9